createdAt,value
2018-05-01T00:00:25.331Z,69.39
2018-05-01T00:02:34.333Z,69.29
2018-05-01T00:03:36.334Z,69.39
2018-05-01T00:05:35.435Z,69.58
2018-05-01T00:06:35.346Z,69.29
2018-05-01T00:07:35.685Z,69.20
2018-05-01T00:08:35.700Z,69.58
2018-05-01T00:09:35.664Z,69.01
2018-05-01T00:10:36.219Z,68.91
2018-05-01T00:11:36.261Z,69.87
2018-05-01T00:12:36.241Z,69.77
2018-05-01T00:13:36.229Z,70.02
2018-05-01T00:14:35.705Z,70.34
2018-05-01T00:15:35.705Z,70.12
2018-05-01T00:16:35.714Z,70.21
2018-05-01T00:17:36.200Z,70.21
2018-05-01T00:18:35.842Z,69.93
2018-05-01T00:19:35.752Z,70.02
2018-05-01T00:20:35.516Z,70.31
2018-05-01T00:21:35.928Z,70.25
2018-05-01T00:22:36.283Z,70.31
2018-05-01T00:24:04.599Z,70.21
2018-05-01T00:25:30.640Z,70.34
2018-05-01T00:26:30.622Z,70.25
2018-05-01T00:28:53.587Z,70.25
2018-05-01T00:31:06.200Z,70.88
2018-05-01T00:32:06.232Z,70.59
2018-05-01T00:34:25.793Z,70.92
2018-05-01T00:35:17.105Z,70.31
2018-05-01T00:37:14.519Z,70.50
2018-05-01T00:38:12.528Z,71.17
2018-05-01T00:40:48.459Z,71.17
2018-05-01T00:41:26.204Z,71.26
2018-05-01T00:43:47.598Z,71.30
2018-05-01T00:44:27.693Z,71.01
2018-05-01T00:45:27.709Z,71.20
2018-05-01T00:46:47.636Z,71.20
2018-05-01T00:48:36.857Z,71.11
2018-05-01T00:49:36.825Z,71.20
2018-05-01T00:50:36.848Z,71.55
2018-05-01T00:51:37.624Z,71.73
2018-05-01T00:52:36.833Z,71.64
2018-05-01T00:53:39.634Z,71.26
2018-05-01T00:54:36.897Z,71.93
2018-05-01T00:55:39.645Z,71.55
2018-05-01T00:56:39.657Z,71.45
2018-05-01T00:57:39.565Z,71.45
2018-05-01T01:00:27.065Z,71.36
2018-05-01T01:05:39.145Z,71.58
2018-05-01T01:06:39.130Z,71.87
2018-05-01T01:07:39.966Z,71.26
2018-05-01T01:08:39.965Z,71.77
2018-05-01T01:09:39.147Z,72.41
2018-05-01T01:10:39.215Z,72.25
2018-05-01T01:11:39.121Z,72.02
2018-05-01T01:12:39.107Z,72.31
2018-05-01T01:13:39.108Z,72.50
2018-05-01T01:14:39.147Z,71.55
2018-05-01T01:15:39.152Z,72.21
2018-05-01T01:16:39.167Z,71.73
2018-05-01T01:17:39.102Z,71.36
2018-05-01T01:18:39.158Z,71.36
2018-05-01T01:19:39.104Z,71.07
2018-05-01T01:20:39.110Z,70.50
2018-05-01T01:21:39.096Z,70.59
2018-05-01T01:22:39.142Z,70.31
2018-05-01T01:23:39.216Z,70.88
2018-05-01T01:24:39.171Z,70.59
2018-05-01T01:25:39.241Z,70.31
2018-05-01T01:26:39.153Z,69.83
2018-05-01T01:27:39.157Z,70.78
2018-05-01T01:28:39.234Z,70.59
2018-05-01T01:29:39.974Z,70.50
2018-05-01T01:30:39.152Z,70.97
2018-05-01T01:31:39.085Z,71.26
2018-05-01T01:32:39.121Z,71.45
2018-05-01T01:33:39.088Z,71.55
2018-05-01T01:34:39.140Z,71.73
2018-05-01T01:35:39.214Z,71.45
2018-05-01T01:36:39.100Z,71.32
2018-05-01T01:37:39.088Z,72.21
2018-05-01T01:38:39.119Z,71.36
2018-05-01T01:39:40.167Z,72.37
2018-05-01T01:40:39.082Z,71.61
2018-05-01T01:41:41.347Z,71.17
2018-05-01T01:42:40.065Z,71.45
2018-05-01T01:43:40.073Z,71.22
2018-05-01T01:44:39.184Z,71.73
2018-05-01T01:45:39.184Z,71.51
2018-05-01T01:48:17.283Z,72.37
2018-05-01T01:49:15.458Z,72.46
2018-05-01T01:50:15.456Z,72.37
2018-05-01T01:51:15.461Z,72.46
2018-05-01T01:52:15.457Z,72.17
2018-05-01T01:53:15.474Z,72.46
2018-05-01T01:54:15.464Z,71.98
2018-05-01T01:55:15.464Z,72.75
2018-05-01T01:56:15.447Z,72.08
2018-05-01T01:57:15.447Z,72.56
2018-05-01T01:59:47.293Z,71.89
2018-05-01T02:00:46.346Z,71.89
2018-05-01T02:01:46.357Z,72.46
2018-05-01T02:02:46.353Z,72.37
2018-05-01T02:03:47.309Z,72.46
2018-05-01T02:04:48.265Z,72.37
2018-05-01T02:05:46.441Z,72.17
2018-05-01T02:06:47.337Z,72.65
2018-05-01T02:07:46.371Z,72.37
2018-05-01T02:08:46.335Z,72.37
2018-05-01T02:09:47.242Z,71.98
2018-05-01T02:10:46.399Z,72.17
2018-05-01T02:11:46.329Z,72.85
2018-05-01T02:12:46.355Z,72.65
2018-05-01T02:13:47.298Z,73.03
2018-05-01T02:14:48.681Z,72.94
2018-05-01T02:15:46.361Z,73.61
2018-05-01T02:16:46.370Z,73.22
2018-05-01T02:17:46.376Z,73.13
2018-05-01T02:18:46.319Z,73.70
2018-05-01T02:19:46.358Z,73.51
2018-05-01T02:20:46.432Z,73.22
2018-05-01T02:21:47.184Z,73.70
2018-05-01T02:22:46.316Z,73.41
2018-05-01T02:23:46.361Z,73.89
2018-05-01T02:24:46.391Z,73.51
2018-05-01T02:25:46.303Z,73.51
2018-05-01T02:26:47.320Z,73.61
2018-05-01T02:27:46.435Z,73.61
2018-05-01T02:28:46.351Z,73.51
2018-05-01T02:29:46.347Z,73.70
2018-05-01T02:30:46.302Z,73.70
2018-05-01T02:31:46.297Z,73.95
2018-05-01T02:32:46.348Z,74.43
2018-05-01T02:33:47.202Z,74.04
2018-05-01T02:34:46.351Z,74.04
2018-05-01T02:35:46.288Z,74.04
2018-05-01T02:36:46.482Z,74.04
2018-05-01T02:37:46.498Z,74.43
2018-05-01T02:38:51.618Z,74.24
2018-05-01T02:39:48.185Z,74.33
2018-05-01T02:41:09.542Z,73.28
2018-05-01T02:41:46.566Z,73.19
2018-05-01T02:43:01.332Z,73.47
2018-05-01T02:43:46.312Z,73.38
2018-05-01T02:45:00.257Z,73.95
2018-05-01T02:46:42.721Z,73.57
2018-05-01T02:47:42.169Z,72.71
2018-05-01T02:49:37.599Z,73.00
2018-05-01T02:50:37.662Z,72.90
2018-05-01T02:52:44.558Z,73.66
2018-05-01T02:53:44.534Z,73.28
2018-05-01T02:55:43.456Z,73.57
2018-05-01T02:56:43.410Z,74.04
2018-05-01T02:59:14.493Z,74.52
2018-05-01T03:00:14.500Z,74.90
2018-05-01T03:02:31.974Z,74.99
2018-05-01T03:03:18.946Z,74.62
2018-05-01T03:04:18.922Z,74.62
2018-05-01T03:05:18.897Z,74.99
2018-05-01T03:06:18.894Z,74.14
2018-05-01T03:07:18.901Z,74.24
2018-05-01T03:08:18.919Z,75.19
2018-05-01T03:09:33.966Z,74.99
2018-05-01T03:11:38.888Z,74.71
2018-05-01T03:14:23.659Z,74.43
2018-05-01T03:16:52.738Z,74.24
2018-05-01T03:23:47.112Z,74.14
2018-05-01T03:26:57.911Z,73.47
2018-05-01T03:27:35.507Z,73.57
2018-05-01T03:29:52.037Z,73.66
2018-05-01T03:30:57.557Z,73.38
2018-05-01T03:32:38.313Z,73.47
2018-05-01T03:33:37.783Z,73.28
2018-05-01T03:35:32.321Z,74.04
2018-05-01T03:36:32.314Z,74.14
2018-05-01T03:38:32.279Z,73.95
2018-05-01T03:39:32.211Z,73.57
2018-05-01T03:40:32.684Z,73.19
2018-05-01T03:41:32.698Z,73.85
2018-05-01T03:42:32.735Z,73.95
2018-05-01T03:43:33.746Z,73.95
2018-05-01T03:45:59.755Z,73.57
2018-05-01T03:46:59.721Z,73.57
2018-05-01T03:47:59.738Z,73.57
2018-05-01T03:48:59.713Z,72.71
2018-05-01T03:49:59.712Z,73.19
2018-05-01T03:50:59.709Z,73.19
2018-05-01T03:51:59.704Z,73.10
2018-05-01T03:53:08.369Z,72.71
2018-05-01T03:54:56.675Z,73.19
2018-05-01T03:56:10.869Z,73.66
2018-05-01T03:57:50.987Z,73.19
2018-05-01T03:58:50.986Z,73.47
2018-05-01T04:00:56.495Z,73.38
2018-05-01T04:03:28.120Z,73.19
2018-05-01T04:04:28.018Z,73.76
2018-05-01T04:05:37.853Z,73.57
2018-05-01T04:06:28.038Z,73.57
2018-05-01T04:07:46.621Z,73.47
2018-05-01T04:09:37.457Z,73.47
2018-05-01T04:14:01.367Z,74.43
2018-05-01T04:14:48.879Z,74.52
2018-05-01T04:15:48.855Z,74.62
2018-05-01T04:16:48.848Z,74.58
2018-05-01T04:17:48.845Z,74.24
2018-05-01T04:18:48.889Z,74.39
2018-05-01T04:19:48.900Z,74.67
2018-05-01T04:20:48.903Z,75.15
2018-05-01T04:21:48.835Z,75.24
2018-05-01T04:22:48.836Z,74.29
2018-05-01T04:23:48.832Z,74.48
2018-05-01T04:24:48.836Z,75.15
2018-05-01T04:25:48.852Z,74.96
2018-05-01T04:26:48.823Z,75.15
2018-05-01T04:27:48.821Z,75.15
2018-05-01T04:28:48.824Z,75.34
2018-05-01T04:29:48.818Z,75.24
2018-05-01T04:30:48.815Z,75.15
2018-05-01T04:31:48.817Z,75.05
2018-05-01T04:32:48.812Z,75.43
2018-05-01T04:33:48.807Z,74.48
2018-05-01T04:34:48.806Z,74.48
2018-05-01T04:35:48.806Z,74.48
2018-05-01T04:36:48.802Z,74.48
2018-05-01T04:37:48.799Z,74.29
2018-05-01T04:38:48.796Z,74.29
2018-05-01T04:39:48.794Z,74.20
2018-05-01T04:40:48.792Z,74.20
2018-05-01T04:41:48.790Z,74.48
2018-05-01T04:42:49.300Z,74.39
2018-05-01T04:43:49.306Z,74.20
2018-05-01T04:44:48.802Z,74.10
2018-05-01T04:45:48.781Z,73.06
2018-05-01T04:46:48.779Z,73.44
2018-05-01T04:47:48.778Z,73.82
2018-05-01T04:48:48.773Z,74.29
2018-05-01T04:49:48.772Z,73.34
2018-05-01T04:50:48.769Z,72.96
2018-05-01T04:51:48.798Z,72.74
2018-05-01T04:52:48.764Z,73.59
2018-05-01T04:53:48.761Z,72.92
2018-05-01T04:54:48.758Z,72.92
2018-05-01T04:55:48.764Z,73.02
2018-05-01T04:56:48.756Z,73.59
2018-05-01T04:57:48.756Z,73.11
2018-05-01T04:58:48.764Z,73.02
2018-05-01T04:59:49.305Z,72.92
2018-05-01T05:00:48.776Z,72.74
2018-05-01T05:01:48.756Z,72.55
2018-05-01T05:02:48.764Z,72.55
2018-05-01T05:03:48.739Z,71.78
2018-05-01T05:04:48.734Z,70.45
2018-05-01T05:05:48.737Z,70.17
2018-05-01T05:06:48.734Z,69.88
2018-05-01T05:07:48.727Z,69.79
2018-05-01T05:08:48.727Z,70.17
2018-05-01T05:09:48.768Z,69.56
2018-05-01T05:10:48.728Z,69.88
2018-05-01T05:11:48.721Z,69.94
2018-05-01T05:12:48.722Z,69.66
2018-05-01T05:13:48.717Z,69.66
2018-05-01T05:14:48.733Z,70.13
2018-05-01T05:15:48.727Z,70.13
2018-05-01T05:16:48.712Z,69.94
2018-05-01T05:17:48.704Z,69.75
2018-05-01T05:18:48.698Z,69.94
2018-05-01T05:19:48.721Z,70.51
2018-05-01T05:20:48.733Z,69.46
2018-05-01T05:21:48.756Z,70.42
2018-05-01T05:22:48.689Z,69.94
2018-05-01T05:23:48.694Z,70.32
2018-05-01T05:24:48.706Z,70.04
2018-05-01T05:25:48.679Z,70.23
2018-05-01T05:26:48.679Z,70.89
2018-05-01T05:27:48.679Z,70.32
2018-05-01T05:28:48.669Z,70.51
2018-05-01T05:29:48.699Z,70.13
2018-05-01T05:30:48.668Z,70.89
2018-05-01T05:31:48.677Z,70.99
2018-05-01T05:32:48.666Z,70.89
2018-05-01T05:33:49.309Z,71.08
2018-05-01T05:34:48.658Z,71.37
2018-05-01T05:35:48.646Z,71.08
2018-05-01T05:36:48.643Z,71.37
2018-05-01T05:37:48.651Z,71.56
2018-05-01T05:38:48.636Z,72.22
2018-05-01T05:39:48.639Z,72.22
2018-05-01T05:40:48.635Z,71.84
2018-05-01T05:41:48.654Z,71.37
2018-05-01T05:42:48.694Z,71.18
2018-05-01T05:43:48.658Z,71.56
2018-05-01T05:44:48.631Z,71.37
2018-05-01T05:45:48.648Z,71.46
2018-05-01T05:46:48.642Z,70.89
2018-05-01T05:47:48.683Z,70.70
2018-05-01T05:48:48.660Z,70.61
2018-05-01T05:49:49.310Z,69.94
2018-05-01T05:50:48.618Z,69.12
2018-05-01T05:51:48.600Z,68.17
2018-05-01T05:52:49.315Z,67.07
2018-05-01T05:53:48.613Z,66.59
2018-05-01T05:54:49.305Z,65.35
2018-05-01T05:55:48.619Z,64.24
2018-05-01T05:56:48.587Z,63.10
2018-05-01T05:57:48.595Z,61.90
2018-05-01T05:58:48.622Z,61.25
2018-05-01T05:59:48.577Z,60.37
2018-05-01T06:00:48.612Z,60.37
2018-05-01T06:01:48.585Z,60.02
2018-05-01T06:02:48.572Z,59.83
2018-05-01T06:03:48.567Z,59.92
2018-05-01T06:04:48.573Z,59.89
2018-05-01T06:05:48.567Z,60.40
2018-05-01T06:06:48.560Z,60.11
2018-05-01T06:07:48.563Z,59.64
2018-05-01T06:08:48.557Z,59.83
2018-05-01T06:09:49.319Z,60.02
2018-05-01T06:10:48.558Z,59.54
2018-05-01T06:11:48.549Z,59.74
2018-05-01T06:12:48.549Z,59.83
2018-05-01T06:13:48.582Z,59.92
2018-05-01T06:14:48.550Z,60.02
2018-05-01T06:15:48.547Z,59.95
2018-05-01T06:16:48.549Z,59.86
2018-05-01T06:17:48.547Z,59.64
2018-05-01T06:18:48.548Z,59.95
2018-05-01T06:19:48.541Z,58.72
2018-05-01T06:20:48.540Z,57.89
2018-05-01T06:21:48.569Z,58.14
2018-05-01T06:22:48.538Z,57.50
2018-05-01T06:23:48.540Z,57.41
2018-05-01T06:24:48.538Z,57.50
2018-05-01T06:25:48.538Z,57.31
2018-05-01T06:26:48.538Z,57.22
2018-05-01T06:27:49.310Z,57.98
2018-05-01T06:28:48.536Z,57.48
2018-05-01T06:29:48.556Z,58.24
2018-05-01T06:30:48.541Z,58.81
2018-05-01T06:31:48.534Z,57.98
2018-05-01T06:32:48.569Z,57.79
2018-05-01T06:33:49.312Z,57.53
2018-05-01T06:34:48.535Z,56.10
2018-05-01T06:35:48.561Z,56.01
2018-05-01T06:36:48.576Z,55.94
2018-05-01T06:37:48.534Z,55.34
2018-05-01T06:38:48.541Z,55.18
2018-05-01T06:39:48.535Z,54.99
2018-05-01T06:40:48.535Z,54.53
2018-05-01T06:41:48.536Z,53.93
2018-05-01T06:42:48.536Z,54.32
2018-05-01T06:43:48.609Z,54.57
2018-05-01T06:44:48.538Z,55.41
2018-05-01T06:45:48.541Z,55.53
2018-05-01T06:46:48.540Z,55.08
2018-05-01T06:47:48.537Z,54.70
2018-05-01T06:48:48.544Z,54.50
2018-05-01T06:49:48.544Z,53.49
2018-05-01T06:50:48.626Z,53.39
2018-05-01T06:51:48.558Z,53.10
2018-05-01T06:52:48.551Z,53.27
2018-05-01T06:53:48.555Z,52.59
2018-05-01T06:54:48.553Z,53.17
2018-05-01T06:55:48.554Z,54.77
2018-05-01T06:56:49.312Z,54.96
2018-05-01T06:57:48.572Z,54.53
2018-05-01T06:58:48.560Z,53.10
2018-05-01T06:59:48.565Z,52.17
2018-05-01T07:00:48.565Z,51.95
2018-05-01T07:01:49.313Z,52.48
2018-05-01T07:02:48.569Z,53.84
2018-05-01T07:03:48.568Z,53.45
2018-05-01T07:04:48.577Z,53.33
2018-05-01T07:05:48.598Z,53.45
2018-05-01T07:06:48.574Z,53.45
2018-05-01T07:07:48.589Z,52.69
2018-05-01T07:08:48.608Z,52.05
2018-05-01T07:09:48.593Z,52.05
2018-05-01T07:10:48.598Z,52.05
2018-05-01T07:11:48.588Z,52.05
2018-05-01T07:12:48.590Z,50.52
2018-05-01T07:13:48.615Z,51.03
2018-05-01T07:14:48.593Z,51.15
2018-05-01T07:15:48.619Z,50.74
2018-05-01T07:16:48.601Z,51.48
2018-05-01T07:17:48.605Z,52.03
2018-05-01T07:18:48.608Z,52.91
2018-05-01T07:19:48.610Z,51.76
2018-05-01T07:20:48.612Z,51.29
2018-05-01T07:21:48.615Z,50.67
2018-05-01T07:22:48.616Z,50.57
2018-05-01T07:23:48.644Z,49.59
2018-05-01T07:24:48.627Z,50.55
2018-05-01T07:25:48.631Z,51.17
2018-05-01T07:26:48.640Z,52.24
2018-05-01T07:27:48.637Z,51.64
2018-05-01T07:28:48.640Z,52.98
2018-05-01T07:29:48.647Z,52.59
2018-05-01T07:30:48.692Z,51.93
2018-05-01T07:31:48.653Z,51.83
2018-05-01T07:32:48.686Z,52.09
2018-05-01T07:33:48.661Z,52.59
2018-05-01T07:34:48.668Z,52.40
2018-05-01T07:35:48.669Z,52.62
2018-05-01T07:36:48.673Z,52.05
2018-05-01T07:37:49.320Z,52.31
2018-05-01T07:38:48.688Z,52.03
2018-05-01T07:39:48.691Z,51.86
2018-05-01T07:40:48.687Z,51.79
2018-05-01T07:41:48.725Z,51.24
2018-05-01T07:42:48.764Z,49.74
2018-05-01T07:43:49.521Z,48.68
2018-05-01T07:44:48.785Z,47.63
2018-05-01T07:45:48.712Z,48.04
2018-05-01T07:46:57.904Z,48.23
2018-05-01T07:48:43.867Z,47.08
2018-05-01T07:49:43.140Z,46.77
2018-05-01T07:50:43.176Z,49.09
2018-05-01T07:51:43.685Z,51.90
2018-05-01T07:52:43.148Z,53.24
2018-05-01T07:53:43.202Z,54.38
2018-05-01T07:54:43.179Z,54.38
2018-05-01T07:55:43.123Z,53.17
2018-05-01T07:56:43.162Z,53.41
2018-05-01T07:57:43.133Z,53.93
2018-05-01T07:58:43.168Z,53.45
2018-05-01T07:59:43.147Z,52.69
2018-05-01T08:00:43.161Z,53.93
2018-05-01T08:01:43.178Z,53.67
2018-05-01T08:02:43.201Z,53.29
2018-05-01T08:03:43.210Z,52.26
2018-05-01T08:04:43.168Z,51.29
2018-05-01T08:05:43.174Z,51.95
2018-05-01T08:06:43.179Z,51.86
2018-05-01T08:07:43.184Z,52.12
2018-05-01T08:08:43.190Z,52.53
2018-05-01T08:09:43.193Z,53.00
2018-05-01T08:10:43.199Z,52.81
2018-05-01T08:11:43.203Z,52.62
2018-05-01T08:12:43.210Z,51.54
2018-05-01T08:13:43.218Z,52.59
2018-05-01T08:14:43.273Z,54.38
2018-05-01T08:15:43.226Z,54.96
2018-05-01T08:16:43.236Z,54.99
2018-05-01T08:17:43.238Z,54.41
2018-05-01T08:18:43.264Z,54.60
2018-05-01T08:19:43.246Z,53.93
2018-05-01T08:20:43.251Z,54.03
2018-05-01T08:21:43.256Z,54.60
2018-05-01T08:22:43.262Z,53.91
2018-05-01T08:23:43.288Z,54.67
2018-05-01T08:24:43.268Z,55.05
2018-05-01T08:25:43.272Z,54.96
2018-05-01T08:26:43.277Z,55.69
2018-05-01T08:27:43.286Z,55.79
2018-05-01T08:28:43.285Z,56.10
2018-05-01T08:29:43.288Z,56.10
2018-05-01T08:30:43.292Z,55.50
2018-05-01T08:31:43.311Z,55.79
2018-05-01T08:32:43.308Z,56.84
2018-05-01T08:33:43.327Z,57.41
2018-05-01T08:34:43.304Z,56.96
2018-05-01T08:35:44.164Z,56.67
2018-05-01T08:36:43.311Z,55.75
2018-05-01T08:37:43.376Z,54.67
2018-05-01T08:38:43.354Z,55.50
2018-05-01T08:39:43.339Z,56.17
2018-05-01T08:40:43.323Z,56.10
2018-05-01T08:41:43.323Z,55.12
2018-05-01T08:42:43.327Z,55.98
2018-05-01T08:43:43.333Z,56.07
2018-05-01T08:44:43.330Z,55.91
2018-05-01T08:45:43.361Z,56.10
2018-05-01T08:46:43.355Z,54.67
2018-05-01T08:47:43.338Z,54.89
2018-05-01T08:48:43.340Z,55.18
2018-05-01T08:49:43.361Z,54.32
2018-05-01T08:50:43.370Z,54.60
2018-05-01T08:51:43.361Z,53.93
2018-05-01T08:52:43.345Z,54.60
2018-05-01T08:53:43.349Z,53.55
2018-05-01T08:54:43.352Z,53.43
2018-05-01T08:55:43.353Z,54.77
2018-05-01T08:56:43.373Z,54.48
2018-05-01T08:57:43.359Z,53.53
2018-05-01T08:58:43.359Z,54.89
2018-05-01T08:59:43.375Z,55.08
2018-05-01T09:00:43.372Z,54.00
2018-05-01T09:01:43.363Z,54.45
2018-05-01T09:02:43.365Z,54.67
2018-05-01T09:03:43.366Z,54.93
2018-05-01T09:04:43.427Z,56.07
2018-05-01T09:05:43.372Z,55.88
2018-05-01T09:06:43.374Z,56.81
2018-05-01T09:07:43.383Z,56.71
2018-05-01T09:08:43.377Z,56.55
2018-05-01T09:09:43.380Z,55.88
2018-05-01T09:10:43.379Z,56.10
2018-05-01T09:11:43.380Z,56.07
2018-05-01T09:12:43.381Z,56.26
2018-05-01T09:13:43.384Z,57.12
2018-05-01T09:14:43.388Z,56.29
2018-05-01T09:15:43.387Z,55.05
2018-05-01T09:16:43.388Z,54.38
2018-05-01T09:17:43.484Z,54.29
2018-05-01T09:18:43.391Z,54.70
2018-05-01T09:19:43.509Z,53.36
2018-05-01T09:20:43.575Z,53.84
2018-05-01T09:21:43.395Z,52.88
2018-05-01T09:22:43.396Z,53.74
2018-05-01T09:23:43.398Z,53.29
2018-05-01T09:24:43.399Z,52.84
2018-05-01T09:25:43.403Z,52.65
2018-05-01T09:26:44.112Z,52.17
2018-05-01T09:27:43.404Z,50.74
2018-05-01T09:28:43.405Z,50.74
2018-05-01T09:29:43.407Z,51.31
2018-05-01T09:30:43.410Z,51.98
2018-05-01T09:31:43.410Z,52.10
2018-05-01T09:32:43.412Z,51.12
2018-05-01T09:33:43.417Z,51.48
2018-05-01T09:34:43.418Z,52.59
2018-05-01T09:35:43.428Z,53.45
2018-05-01T09:36:43.422Z,54.50
2018-05-01T09:37:43.425Z,54.38
2018-05-01T09:38:43.428Z,54.38
2018-05-01T09:39:43.429Z,56.01
2018-05-01T09:40:43.429Z,56.07
2018-05-01T09:41:43.443Z,56.74
2018-05-01T09:42:43.460Z,56.65
2018-05-01T09:43:43.436Z,56.07
2018-05-01T09:44:43.469Z,56.55
2018-05-01T09:45:43.439Z,57.09
2018-05-01T09:46:43.444Z,57.57
2018-05-01T09:47:43.441Z,58.81
2018-05-01T09:48:43.444Z,58.14
2018-05-01T09:49:43.448Z,57.86
2018-05-01T09:50:43.449Z,58.52
2018-05-01T09:51:43.448Z,59.48
2018-05-01T09:52:43.451Z,58.62
2018-05-01T09:53:43.450Z,58.91
2018-05-01T09:54:43.453Z,59.48
2018-05-01T09:55:43.489Z,60.05
2018-05-01T09:56:43.587Z,60.14
2018-05-01T09:57:43.461Z,59.28
2018-05-01T09:58:43.457Z,59.57
2018-05-01T09:59:43.460Z,59.83
2018-05-01T10:00:43.457Z,60.24
2018-05-01T10:01:43.542Z,59.76
2018-05-01T10:02:43.462Z,60.43
2018-05-01T10:03:43.460Z,59.95
2018-05-01T10:04:43.470Z,59.38
2018-05-01T10:05:43.462Z,58.81
2018-05-01T10:06:44.119Z,59.89
2018-05-01T10:07:44.119Z,57.22
2018-05-01T10:08:43.461Z,56.55
2018-05-01T10:09:43.465Z,57.06
2018-05-01T10:10:43.465Z,56.58
2018-05-01T10:11:43.484Z,55.72
2018-05-01T10:12:43.463Z,56.20
2018-05-01T10:13:43.473Z,55.53
2018-05-01T10:14:43.468Z,55.12
2018-05-01T10:15:43.469Z,55.98
2018-05-01T10:16:43.492Z,55.60
2018-05-01T10:17:43.473Z,56.71
2018-05-01T10:18:43.513Z,56.81
2018-05-01T10:19:43.477Z,57.09
2018-05-01T10:20:43.474Z,57.76
2018-05-01T10:21:43.472Z,58.97
2018-05-01T10:22:43.487Z,58.62
2018-05-01T10:23:43.484Z,59.57
2018-05-01T10:24:43.521Z,59.48
2018-05-01T10:25:43.498Z,59.00
2018-05-01T10:26:43.479Z,58.91
2018-05-01T10:27:43.489Z,59.28
2018-05-01T10:28:44.688Z,59.48
2018-05-01T10:29:43.477Z,58.81
2018-05-01T10:30:43.476Z,58.72
2018-05-01T10:31:43.481Z,58.62
2018-05-01T10:32:43.521Z,59.67
2018-05-01T10:33:43.479Z,59.48
2018-05-01T10:34:43.512Z,58.52
2018-05-01T10:35:43.535Z,58.81
2018-05-01T10:36:43.502Z,59.38
2018-05-01T10:37:43.537Z,59.00
2018-05-01T10:38:43.566Z,59.86
2018-05-01T10:39:43.520Z,59.76
2018-05-01T10:40:43.480Z,59.76
2018-05-01T10:41:43.493Z,59.76
2018-05-01T10:42:50.666Z,60.40
2018-05-01T10:43:49.127Z,60.11
2018-05-01T10:44:43.504Z,60.40
2018-05-01T10:45:43.514Z,60.69
2018-05-01T10:46:43.502Z,61.16
2018-05-01T10:47:44.127Z,61.25
2018-05-01T10:48:52.151Z,60.97
2018-05-01T10:50:41.409Z,61.80
2018-05-01T10:51:37.857Z,61.73
2018-05-01T10:54:36.268Z,61.83
2018-05-01T10:55:36.247Z,60.21
2018-05-01T10:56:37.012Z,60.11
2018-05-01T10:57:36.205Z,60.02
2018-05-01T10:58:36.184Z,59.92
2018-05-01T10:59:36.237Z,60.30
2018-05-01T11:00:36.342Z,60.49
2018-05-01T11:01:36.185Z,60.49
2018-05-01T11:02:36.189Z,59.92
2018-05-01T11:03:36.187Z,59.86
2018-05-01T11:04:36.208Z,58.91
2018-05-01T11:05:36.207Z,58.43
2018-05-01T11:06:36.210Z,58.62
2018-05-01T11:07:36.189Z,58.24
2018-05-01T11:08:36.206Z,58.11
2018-05-01T11:09:36.192Z,58.87
2018-05-01T11:10:36.180Z,58.87
2018-05-01T11:11:36.956Z,59.26
2018-05-01T11:12:36.196Z,58.87
2018-05-01T11:13:36.195Z,59.83
2018-05-01T11:14:36.180Z,58.91
2018-05-01T11:15:37.072Z,58.97
2018-05-01T11:16:36.302Z,58.33
2018-05-01T11:17:36.236Z,58.69
2018-05-01T11:18:36.187Z,58.87
2018-05-01T11:19:36.182Z,58.78
2018-05-01T11:20:36.610Z,58.78
2018-05-01T11:21:36.175Z,59.26
2018-05-01T11:22:36.446Z,59.70
2018-05-01T11:23:36.174Z,60.37
2018-05-01T11:24:36.237Z,61.70
2018-05-01T11:25:36.174Z,61.22
2018-05-01T11:26:37.012Z,61.04
2018-05-01T11:27:36.183Z,61.42
2018-05-01T11:28:36.205Z,61.32
2018-05-01T11:29:36.172Z,60.56
2018-05-01T11:30:36.175Z,60.69
2018-05-01T11:31:36.168Z,60.49
2018-05-01T11:32:36.173Z,59.70
2018-05-01T11:33:36.213Z,60.11
2018-05-01T11:34:36.167Z,59.92
2018-05-01T11:35:36.249Z,60.40
2018-05-01T11:36:36.195Z,59.35
2018-05-01T11:37:36.175Z,59.83
2018-05-01T11:38:36.184Z,59.16
2018-05-01T11:39:36.183Z,59.83
2018-05-01T11:40:36.172Z,59.95
2018-05-01T11:41:36.163Z,60.52
2018-05-01T11:42:36.171Z,59.86
2018-05-01T11:43:36.165Z,59.19
2018-05-01T11:44:36.161Z,58.72
2018-05-01T11:45:37.309Z,57.70
2018-05-01T11:46:36.177Z,58.75
2018-05-01T11:47:36.185Z,58.84
2018-05-01T11:48:36.162Z,57.12
2018-05-01T11:49:36.362Z,56.46
2018-05-01T11:50:36.170Z,57.03
2018-05-01T11:51:36.159Z,57.60
2018-05-01T11:52:36.164Z,58.36
2018-05-01T11:53:36.159Z,57.60
2018-05-01T11:54:36.164Z,57.31
2018-05-01T11:55:36.271Z,56.74
2018-05-01T11:56:36.162Z,57.31
2018-05-01T11:57:36.967Z,56.07
2018-05-01T11:58:36.159Z,55.88
2018-05-01T11:59:36.173Z,56.07
2018-05-01T12:00:36.157Z,56.36
2018-05-01T12:01:37.136Z,56.26
2018-05-01T12:02:36.233Z,57.31
2018-05-01T12:03:36.492Z,57.41
2018-05-01T12:04:36.244Z,58.87
2018-05-01T12:05:36.165Z,58.87
2018-05-01T12:06:36.973Z,58.01
2018-05-01T12:07:37.373Z,56.65
2018-05-01T12:08:36.551Z,56.65
2018-05-01T12:09:36.280Z,57.22
2018-05-01T12:10:36.298Z,57.43
2018-05-01T12:11:36.172Z,56.77
2018-05-01T12:12:36.168Z,56.10
2018-05-01T12:13:36.172Z,56.67
2018-05-01T12:16:44.589Z,56.87
2018-05-01T12:17:44.632Z,57.24
2018-05-01T12:18:44.552Z,57.34
2018-05-01T12:19:44.558Z,57.82
2018-05-01T12:20:44.549Z,56.48
2018-05-01T12:21:44.608Z,56.26
2018-05-01T12:22:44.551Z,56.26
2018-05-01T12:23:44.615Z,56.29
2018-05-01T12:24:44.553Z,55.34
2018-05-01T12:25:44.552Z,55.65
2018-05-01T12:26:44.552Z,55.30
2018-05-01T12:27:44.612Z,53.03
2018-05-01T12:28:44.551Z,52.26
2018-05-01T12:29:44.549Z,52.55
2018-05-01T12:30:44.553Z,51.98
2018-05-01T12:31:44.554Z,52.46
2018-05-01T12:32:44.641Z,50.84
2018-05-01T12:33:44.555Z,51.50
2018-05-01T12:34:45.574Z,51.98
2018-05-01T12:35:45.109Z,52.65
2018-05-01T12:36:44.617Z,52.94
2018-05-01T12:37:44.560Z,52.62
2018-05-01T12:38:44.559Z,53.41
2018-05-01T12:39:44.559Z,53.32
2018-05-01T12:40:44.565Z,52.46
2018-05-01T12:41:44.562Z,51.70
2018-05-01T12:42:44.563Z,51.98
2018-05-01T12:43:45.079Z,51.89
2018-05-01T12:44:44.561Z,52.08
2018-05-01T12:45:44.566Z,51.89
2018-05-01T12:46:44.567Z,51.98
2018-05-01T12:47:44.576Z,53.22
2018-05-01T12:48:44.584Z,51.89
2018-05-01T12:49:44.571Z,51.19
2018-05-01T12:50:44.572Z,52.62
2018-05-01T12:51:44.570Z,52.62
2018-05-01T12:52:44.575Z,52.62
2018-05-01T12:53:44.593Z,52.53
2018-05-01T12:54:44.576Z,53.29
2018-05-01T12:55:44.577Z,53.39
2018-05-01T12:56:44.578Z,53.29
2018-05-01T12:57:44.621Z,53.55
2018-05-01T12:58:44.608Z,53.55
2018-05-01T12:59:44.650Z,53.08
2018-05-01T13:00:44.585Z,53.39
2018-05-01T13:01:44.583Z,53.49
2018-05-01T13:02:44.587Z,52.91
2018-05-01T13:03:44.585Z,53.20
2018-05-01T13:04:45.283Z,52.43
2018-05-01T13:05:44.587Z,52.05
2018-05-01T13:06:44.588Z,51.76
2018-05-01T13:07:44.604Z,53.08
2018-05-01T13:08:44.692Z,53.36
2018-05-01T13:09:44.591Z,53.36
2018-05-01T13:10:44.594Z,53.77
2018-05-01T13:11:44.592Z,54.56
2018-05-01T13:12:44.593Z,52.75
2018-05-01T13:13:44.597Z,51.81
2018-05-01T13:14:44.596Z,50.86
2018-05-01T13:15:44.596Z,50.00
2018-05-01T13:16:44.597Z,50.38
2018-05-01T13:17:44.599Z,49.49
2018-05-01T13:18:44.607Z,49.98
2018-05-01T13:19:44.599Z,50.81
2018-05-01T13:20:44.635Z,51.89
2018-05-01T13:21:45.580Z,52.75
2018-05-01T13:22:44.607Z,52.26
2018-05-01T13:23:44.729Z,52.05
2018-05-01T13:24:44.609Z,51.86
2018-05-01T13:25:46.262Z,51.38
2018-05-01T13:26:44.659Z,51.38
2018-05-01T13:27:44.674Z,51.86
2018-05-01T13:28:44.617Z,51.89
2018-05-01T13:29:46.275Z,51.31
2018-05-01T13:30:44.618Z,51.34
2018-05-01T13:31:44.724Z,51.34
2018-05-01T13:32:44.627Z,52.13
2018-05-01T13:33:44.631Z,51.24
2018-05-01T13:34:46.084Z,51.36
2018-05-01T13:35:44.620Z,51.36
2018-05-01T13:36:44.620Z,50.41
2018-05-01T13:37:44.642Z,49.71
2018-05-01T13:38:44.638Z,50.00
2018-05-01T13:39:44.783Z,51.21
2018-05-01T13:40:44.647Z,52.08
2018-05-01T13:41:44.629Z,51.79
2018-05-01T13:42:44.660Z,51.95
2018-05-01T13:43:44.631Z,51.76
2018-05-01T13:44:44.634Z,51.95
2018-05-01T13:45:44.633Z,52.72
2018-05-01T13:46:44.637Z,52.69
2018-05-01T13:47:44.644Z,53.45
2018-05-01T13:48:45.588Z,54.50
2018-05-01T13:49:45.067Z,53.84
2018-05-01T13:50:44.666Z,54.41
2018-05-01T13:51:44.647Z,54.32